dbplanet.net alexa rank chart, dbplanet.net alexa rank daily changes

dbplanet.net alexa rank chart, dbplanet.net alexa rank daily changes

dbplanet.net
Actual rank:
98 886

RANK HISTORY

Date Rank Diff
2017/10/21 98 886 -208
2017/10/20 99 094 -2 812
2017/10/19 101 906 +1 960
2017/10/18 99 946 +1 311
2017/10/17 98 635 -147
2017/10/16 98 782 -3 727
2017/10/14 102 509 +199
2017/10/13 102 310 -1 460
2017/10/12 103 770 +682
2017/10/11 103 088 -24
2017/10/10 103 112 -81
2017/10/09 103 193 +396
2017/10/08 102 797 -1 430
2017/10/07 104 227 -1 388
2017/10/06 105 615 -1 065
2017/10/05 106 680 +375
2017/10/04 106 305 +1 214
2017/10/03 105 091 -522
2017/10/02 105 613 -687
2017/10/01 106 300 -2 441
2017/09/30 108 741 -1 272
2017/09/29 110 013 -1 182
2017/09/28 111 195 +236
2017/09/27 110 959 +1 279
2017/09/26 109 680 -1 464
2017/09/25 111 144 -1 116
2017/09/24 112 260 -529
2017/09/23 112 789 -739
2017/09/22 113 528 +1 876
2017/09/20 111 652 +3 719
2017/09/19 107 933 +779
2017/09/18 107 154 -557
2017/09/17 107 711 +2 552
2017/09/16 105 159 +2 374
2017/09/15 102 785 +1 510
2017/09/14 101 275 +3 970
2017/09/13 97 305 +1 978
2017/09/12 95 327 -815
2017/09/11 96 142 -257
2017/09/10 96 399 +581
2017/09/09 95 818 -1 437
2017/09/08 97 255 +2 305
2017/09/07 94 950 +1 243
2017/09/06 93 707 +1 850
2017/09/05 91 857 +284
2017/09/04 91 573 -1 407
2017/09/03 92 980 -1 331
2017/09/02 94 311 +530
2017/09/01 93 781 -195
2017/08/31 93 976 +3 494
2017/08/30 90 482 +543
2017/08/29 89 939 +665
2017/08/28 89 274 -567
2017/08/27 89 841 +423
2017/08/26 89 418 +609
2017/08/25 88 809 +1 165
2017/08/24 87 644 +955
2017/08/23 86 689 -775
2017/08/22 87 464

WIDGET FOR YOUR SITE

DOMAINS WITH THE NEAREST RANK

Domain Rank
anirena.com 98 881
autoscout24.ro 98 882
sobreleyendas.com 98 883
regulations.gov 98 884
swiggy.in 98 885
dbplanet.net 98 886
learntocodewith.me 98 887
superpagina.com.br 98 888
playground.info 98 889
2nyana.net 98 890
imgmaze.co 98 891

DOMAINS WITH THE NEAREST RANK BY TLD .net

Domain Rank
ayloulnews.net 98 823
ppttemplate.net 98 840
gighub.net 98 859
p2push.net 98 867
gentechat.net 98 878
dbplanet.net 98 886
2nyana.net 98 890
educationcurricula.net 98 896
nabl1nks.net 98 970
catholichealth.net 98 979
teachingbooks.net 98 986